메인 페이지
METAR-TAF:

METAR-TAF

공항 :

엘살바도르 국제공항

엘살바도르, 엘살바도르

위도: 13-26N, 경도: 089-03W, 고도: 25m

현재 날씨관측

예보는 1 시간 12분 전, 04:00시(UTC)에 발표되었습니다.
여러 방향의 바람 1kt
온도 27°C
습도 100%
기압 1011 hPa
시정: 8000m

METAR: MSLP 260400Z VRB01KT 8000 NSC 27/27 Q1011 A2986 NOSIG RMK DSTN CB NE BR

시각: 23:12 (05:12 UTC)

예보

예보는 7 시간 42분 전, 21:30시(UTC)에 발표되었습니다.
예보 대상 시간: 26일 00시부터 26일 24시까지 (UTC)
여러 방향의 바람 2kt
시정 10km 이상
고도 2700ft 상공 구름 조금
26일 0600시부터 (UTC)
북동5kt
시정: 8000m
고도 2300ft 상공 구름 조금
고도 3700ft 상공 구름 조금, 적란운.
고도 7000ft 상공 구름 보통
26일 1200시부터 (UTC)
북동4kt
시정: 8000m
고도 2700ft 상공 구름 조금

TAF: MSLP 252130Z 2600/2624 VRB02KT 9999 FEW027 TX34/2618Z TN25/2610Z FM260600 04005KT 8000 FEW023 FEW037CB SCT070 FM261200 05004KT 8000 FEW027

4,000개 이상의 공항 관측 자료 및 예보 (METAR 및 TAF 보고).

지도상에서 검색 가능한 기상관측소가 노란 점과 빨간 점으로 표시되어 있습니다.

기상관측소 명을 보려면 표시 위로 마우스를 이동하세요.

날씨 관측과 예보를 보려면 클릭하세요.

지도 변경 : 확대하려면 엑스 표시가 있는 녹색 버튼, 축소하려면 빼기 표시가 있는 녹색 버튼, 다음 페이지의 지도를 보려면 녹색 화살표를 클릭하세요.


METAR-TAF: